Time;durP1;ratioP1;P1;durP2;ratioP2;P2;SDS_P1;SDS_P2;PMS_P1;PMS_P2;Temp;Humidity;BMP_temperature;BMP_pressure;BME280_temperature;BME280_humidity;BME280_pressure;Samples;Min_cycle;Max_cycle;Signal;HPM_P1;HPM_P2
2023/05/14 00:02:06;;;;;;;20.90;11.70;;;;;;;-143.48;89.76;118439.88;5036036;28;20119;-67
2023/05/14 00:04:31;;;;;;;20.65;11.45;;;;;;;-143.48;89.64;118439.88;5054173;28;20112;-67
2023/05/14 00:06:57;;;;;;;19.75;10.90;;;;;;;-143.48;88.92;118439.88;5053601;28;20100;-68
2023/05/14 00:09:23;;;;;;;20.80;11.20;;;;;;;-143.48;89.80;118439.88;5054109;28;20037;-68
2023/05/14 00:11:48;;;;;;;20.05;11.15;;;;;;;-143.48;89.94;118439.88;5053687;28;20043;-67
2023/05/14 00:14:13;;;;;;;19.13;11.52;;;;;;;-143.48;90.64;118439.88;5053502;28;20353;-67
2023/05/14 00:16:39;;;;;;;22.13;11.02;;;;;;;-143.48;90.16;118439.88;5053726;28;20392;-66
2023/05/14 00:19:04;;;;;;;19.48;11.57;;;;;;;-143.48;89.73;118439.88;5053776;28;20021;-67
2023/05/14 00:21:30;;;;;;;20.90;11.43;;;;;;;-143.48;89.69;118439.88;5053796;28;20055;-68
2023/05/14 00:23:56;;;;;;;18.40;11.02;;;;;;;-143.48;89.20;118439.88;5053498;28;20506;-66
2023/05/14 00:26:21;;;;;;;21.98;12.02;;;;;;;-143.48;89.99;118439.88;5053617;28;20021;-67
2023/05/14 00:28:46;;;;;;;24.30;11.27;;;;;;;-143.48;90.52;118439.88;5035920;28;20025;-67
2023/05/14 00:31:12;;;;;;;24.05;11.38;;;;;;;-143.48;89.97;118439.88;5053570;28;20056;-67
2023/05/14 00:33:38;;;;;;;18.35;10.85;;;;;;;-143.48;91.09;118439.88;5053461;28;20384;-66
2023/05/14 00:36:03;;;;;;;20.27;11.80;;;;;;;-143.48;91.63;118439.88;5053515;28;20111;-67
2023/05/14 00:38:28;;;;;;;20.75;11.40;;;;;;;-143.48;90.95;118439.88;5053525;28;20362;-66
2023/05/14 00:40:54;;;;;;;21.88;11.32;;;;;;;-143.48;92.01;118439.88;5053589;28;20103;-67
2023/05/14 00:43:21;;;;;;;17.27;11.07;;;;;;;-143.48;92.03;118439.88;5053504;28;20024;-67
2023/05/14 00:45:51;;;;;;;21.40;11.95;;;;;;;-143.48;91.63;118439.88;5053565;28;20364;-67
2023/05/14 00:48:17;;;;;;;22.38;11.38;;;;;;;-143.48;92.29;118439.88;5053344;28;20131;-67
2023/05/14 00:50:43;;;;;;;20.67;11.38;;;;;;;-143.48;93.00;118439.88;5035407;28;20174;-67
2023/05/14 00:53:09;;;;;;;20.40;11.27;;;;;;;-143.48;92.74;118439.88;5053375;28;20108;-69
2023/05/14 00:55:39;;;;;;;22.33;10.82;;;;;;;-143.48;93.14;118439.88;5053413;28;20376;-67
2023/05/14 00:58:08;;;;;;;18.13;11.35;;;;;;;-143.48;93.57;118439.88;5053264;28;20036;-67
2023/05/14 01:00:34;;;;;;;18.77;11.15;;;;;;;-143.48;94.02;118439.88;5053271;28;20465;-66
2023/05/14 01:03:01;;;;;;;25.08;11.40;;;;;;;-143.48;94.49;118439.88;5053167;28;20021;-67
2023/05/14 01:05:35;;;;;;;27.48;11.60;;;;;;;-143.48;95.31;118439.88;5053321;28;20108;-67
2023/05/14 01:08:31;;;;;;;23.92;11.57;;;;;;;-143.48;95.41;118439.88;5053248;28;20025;-66
2023/05/14 01:11:12;;;;;;;25.30;11.05;;;;;;;-143.48;95.00;118439.88;5035294;28;20036;-67
2023/05/14 01:13:48;;;;;;;17.40;11.13;;;;;;;-143.48;95.04;118439.88;5053698;28;20504;-67
2023/05/14 01:16:17;;;;;;;22.17;11.63;;;;;;;-143.48;95.38;118439.88;5057028;28;20025;-67
2023/05/14 01:18:44;;;;;;;19.65;10.60;;;;;;;-143.48;95.18;118439.88;5056853;28;20033;-67
2023/05/14 01:21:41;;;;;;;19.45;11.23;;;;;;;-143.48;95.70;118439.88;5057006;28;20032;-66
2023/05/14 01:24:07;;;;;;;21.83;10.45;;;;;;;-143.48;95.56;118439.88;5039013;28;20090;-67
2023/05/14 01:26:34;;;;;;;16.05;10.48;;;;;;;-143.48;95.74;118439.88;5056690;28;20480;-67
2023/05/14 01:29:17;;;;;;;23.38;11.45;;;;;;;-143.48;96.45;118439.88;5039055;28;20487;-68
2023/05/14 01:31:45;;;;;;;20.98;11.02;;;;;;;-143.48;96.52;118439.88;5056577;28;20029;-68
2023/05/14 01:34:12;;;;;;;18.92;11.10;;;;;;;-143.48;96.89;118439.88;5056825;28;20111;-67
2023/05/14 01:36:39;;;;;;;21.05;11.52;;;;;;;-143.48;96.20;118439.88;5056640;28;20040;-67
2023/05/14 01:39:08;;;;;;;17.75;11.18;;;;;;;-143.48;96.60;118439.88;5038751;28;20033;-67
2023/05/14 01:41:35;;;;;;;23.98;11.38;;;;;;;-143.48;96.15;118439.88;5056666;28;20457;-66
2023/05/14 01:44:00;;;;;;;22.38;11.30;;;;;;;-143.48;96.80;118439.88;5038616;28;20437;-67
2023/05/14 01:46:30;;;;;;;21.52;11.75;;;;;;;-143.48;96.24;118439.88;5056672;28;20053;-66
2023/05/14 01:48:55;;;;;;;18.65;10.90;;;;;;;-143.48;96.54;118439.88;5056216;28;20076;-66
2023/05/14 01:51:21;;;;;;;19.02;11.38;;;;;;;-143.48;96.61;118439.88;5056449;28;20095;-66
2023/05/14 01:53:46;;;;;;;20.50;11.85;;;;;;;-143.48;97.50;118439.88;5056210;28;20033;-66
2023/05/14 01:56:11;;;;;;;20.48;11.48;;;;;;;-143.48;97.88;118439.88;5056359;28;20167;-67
2023/05/14 01:58:36;;;;;;;20.52;11.57;;;;;;;-143.48;97.29;118439.88;5056502;28;20031;-66
2023/05/14 02:01:05;;;;;;;19.77;11.40;;;;;;;-143.48;97.14;118439.88;5056064;28;20127;-67
2023/05/14 02:03:30;;;;;;;23.23;11.73;;;;;;;-143.48;97.65;118439.88;5056128;28;20104;-68
2023/05/14 02:05:55;;;;;;;16.80;11.05;;;;;;;-143.48;98.27;118439.88;5056120;28;20090;-67
2023/05/14 02:08:21;;;;;;;21.95;12.05;;;;;;;-143.48;98.58;118439.88;5055936;28;20025;-68
2023/05/14 02:10:46;;;;;;;22.80;10.90;;;;;;;-143.48;97.91;118439.88;5055941;28;20024;-67
2023/05/14 02:13:11;;;;;;;20.15;11.63;;;;;;;-143.48;98.18;118439.88;5038243;28;20115;-67
2023/05/14 02:15:37;;;;;;;21.23;12.23;;;;;;;-143.48;98.37;118439.88;5056157;28;20460;-67
2023/05/14 02:18:02;;;;;;;20.17;11.45;;;;;;;-143.48;97.83;118439.88;5055719;28;20032;-66
2023/05/14 02:20:28;;;;;;;22.38;12.38;;;;;;;-143.48;98.89;118439.88;5055531;28;20092;-67
2023/05/14 02:22:53;;;;;;;20.63;11.48;;;;;;;-143.48;98.78;118439.88;5055870;28;20021;-67
2023/05/14 02:25:18;;;;;;;21.90;12.07;;;;;;;-143.48;98.88;118439.88;5055385;28;20103;-67
2023/05/14 02:27:44;;;;;;;19.70;11.50;;;;;;;-143.48;98.42;118439.88;5055605;28;20031;-67
2023/05/14 02:30:10;;;;;;;22.15;11.90;;;;;;;-143.48;99.42;118439.88;5055702;28;20090;-66
2023/05/14 02:32:35;;;;;;;16.13;10.88;;;;;;;-143.48;99.08;118439.88;5055653;28;20021;-66
2023/05/14 02:35:00;;;;;;;23.05;11.68;;;;;;;-143.48;98.32;118439.88;5055785;28;20028;-66
2023/05/14 02:37:26;;;;;;;21.88;11.57;;;;;;;-143.48;99.20;118439.88;5055110;28;20385;-66
2023/05/14 02:39:52;;;;;;;19.88;11.32;;;;;;;-143.48;100.00;118439.88;5055343;28;20029;-67
2023/05/14 02:42:17;;;;;;;20.25;11.57;;;;;;;-143.48;99.60;118439.88;5037483;28;20079;-67
2023/05/14 02:44:42;;;;;;;22.77;11.57;;;;;;;-143.48;98.95;118439.88;5055533;28;20025;-67
2023/05/14 02:47:08;;;;;;;25.73;12.07;;;;;;;-143.48;99.65;118439.88;5055130;28;20083;-67
2023/05/14 02:49:33;;;;;;;21.90;12.35;;;;;;;-143.48;99.71;118439.88;5055469;28;20025;-66
2023/05/14 02:51:59;;;;;;;23.90;12.60;;;;;;;-143.48;100.00;118439.88;5055212;28;20407;-68
2023/05/14 02:54:25;;;;;;;21.65;12.07;;;;;;;-143.48;100.00;118439.88;5037153;28;20029;-67
2023/05/14 02:56:50;;;;;;;24.90;12.60;;;;;;;-143.48;100.00;118439.88;5055245;28;20075;-68
2023/05/14 02:59:16;;;;;;;23.98;12.73;;;;;;;-143.48;100.00;118439.88;5037107;28;20035;-67
2023/05/14 03:01:41;;;;;;;23.10;11.40;;;;;;;-143.48;100.00;118439.88;5054823;28;20020;-67
2023/05/14 03:04:06;;;;;;;25.33;11.55;;;;;;;-143.48;100.00;118439.88;5055049;28;20021;-66
2023/05/14 03:06:32;;;;;;;24.45;12.63;;;;;;;-143.48;100.00;118439.88;5055113;28;20044;-66
2023/05/14 03:08:57;;;;;;;24.13;12.70;;;;;;;-143.48;100.00;118439.88;5037021;28;20584;-66
2023/05/14 03:11:22;;;;;;;21.75;11.63;;;;;;;-143.48;100.00;118439.88;5054779;28;20079;-67
2023/05/14 03:13:48;;;;;;;20.83;11.75;;;;;;;-143.48;100.00;118439.88;5054897;28;20053;-67
2023/05/14 03:16:13;;;;;;;21.70;11.82;;;;;;;-143.48;100.00;118439.88;5055151;28;20021;-67
2023/05/14 03:18:38;;;;;;;23.55;12.02;;;;;;;-143.48;99.92;118439.88;5036902;28;20103;-67
2023/05/14 03:21:03;;;;;;;21.50;11.98;;;;;;;-143.48;99.86;118439.88;5037019;28;20029;-67
2023/05/14 03:23:30;;;;;;;18.90;11.63;;;;;;;-143.48;100.00;118439.88;5054696;28;20046;-67
2023/05/14 03:25:56;;;;;;;24.90;11.95;;;;;;;-143.48;100.00;118439.88;5054429;28;20025;-67
2023/05/14 03:28:21;;;;;;;23.23;12.75;;;;;;;-143.48;100.00;118439.88;5054355;28;20105;-67
2023/05/14 03:30:47;;;;;;;22.42;12.35;;;;;;;-143.48;100.00;118439.88;5054422;28;20021;-66
2023/05/14 03:33:12;;;;;;;25.45;12.38;;;;;;;-143.48;100.00;118439.88;5054502;28;20033;-66
2023/05/14 03:35:38;;;;;;;23.27;11.80;;;;;;;-143.48;100.00;118439.88;5054486;28;20048;-67
2023/05/14 03:38:03;;;;;;;27.63;12.35;;;;;;;-143.48;100.00;118439.88;5035987;28;20052;-67
2023/05/14 03:40:28;;;;;;;21.15;12.15;;;;;;;-143.48;100.00;118439.88;5054385;28;20475;-66
2023/05/14 03:42:54;;;;;;;18.73;11.35;;;;;;;-143.48;100.00;118439.88;5054172;28;20025;-66
2023/05/14 03:45:20;;;;;;;19.30;11.90;;;;;;;-143.48;100.00;118439.88;5036390;28;20036;-65
2023/05/14 03:47:45;;;;;;;24.58;11.68;;;;;;;-143.48;100.00;118439.88;5054095;28;20045;-66
2023/05/14 03:50:10;;;;;;;20.67;11.82;;;;;;;-143.48;100.00;118439.88;5054189;28;20025;-66
2023/05/14 03:52:36;;;;;;;17.98;11.00;;;;;;;-143.48;100.00;118439.88;5054097;28;20132;-67
2023/05/14 03:55:01;;;;;;;20.05;11.63;;;;;;;-143.48;100.00;118439.88;5053887;28;20028;-67
2023/05/14 03:57:27;;;;;;;25.20;11.43;;;;;;;-143.48;100.00;118439.88;5053864;28;20489;-66
2023/05/14 03:59:52;;;;;;;24.70;11.75;;;;;;;-143.48;100.00;118439.88;5036154;28;20358;-67
2023/05/14 04:02:18;;;;;;;21.17;11.57;;;;;;;-143.48;100.00;118439.88;5035712;28;20124;-66
2023/05/14 04:04:43;;;;;;;20.05;11.88;;;;;;;-143.48;100.00;118439.88;5053865;28;20017;-67
2023/05/14 04:07:08;;;;;;;22.15;11.82;;;;;;;-143.48;99.68;118439.88;5053992;28;20040;-66
2023/05/14 04:09:33;;;;;;;21.52;11.73;;;;;;;-143.48;99.24;118439.88;5053851;28;20364;-67
2023/05/14 04:11:59;;;;;;;24.05;11.65;;;;;;;-143.48;99.00;118439.88;5053842;28;20025;-67
2023/05/14 04:14:24;;;;;;;20.25;11.30;;;;;;;-143.48;98.88;118439.88;5053782;28;20033;-67
2023/05/14 04:16:50;;;;;;;20.30;11.15;;;;;;;-143.48;98.31;118439.88;5053594;28;20025;-67
2023/05/14 04:19:15;;;;;;;22.17;10.95;;;;;;;-143.48;99.15;118439.88;5053501;28;20074;-68
2023/05/14 04:21:41;;;;;;;20.05;11.35;;;;;;;-143.48;98.61;118439.88;5053733;28;20028;-67
2023/05/14 04:24:06;;;;;;;20.20;10.48;;;;;;;-143.48;97.89;118439.88;5053736;28;20031;-67
2023/05/14 04:26:32;;;;;;;19.25;10.68;;;;;;;-143.48;97.44;118439.88;5053700;28;20465;-67
2023/05/14 04:29:01;;;;;;;19.77;11.00;;;;;;;-143.48;97.49;118439.88;5053642;28;20127;-67
2023/05/14 04:31:26;;;;;;;16.83;10.82;;;;;;;-143.48;98.07;118439.88;5035568;28;20483;-67
2023/05/14 04:33:52;;;;;;;16.20;10.60;;;;;;;-143.48;98.04;118439.88;5053326;28;20033;-67
2023/05/14 04:36:17;;;;;;;22.67;11.50;;;;;;;-143.48;97.71;118439.88;5053508;28;20032;-68
2023/05/14 04:38:42;;;;;;;18.50;10.57;;;;;;;-143.48;98.27;118439.88;5053448;28;20108;-68
2023/05/14 04:41:08;;;;;;;20.17;10.77;;;;;;;-143.48;98.36;118439.88;5053380;28;20063;-67
2023/05/14 04:43:33;;;;;;;20.73;10.35;;;;;;;-143.48;97.57;118439.88;5035479;28;20395;-67
2023/05/14 04:45:58;;;;;;;19.60;10.10;;;;;;;-143.48;98.04;118439.88;5053413;28;20025;-67
2023/05/14 04:48:23;;;;;;;17.10;10.23;;;;;;;-143.48;98.66;118439.88;5053580;28;20052;-68
2023/05/14 04:50:49;;;;;;;20.40;10.60;;;;;;;-143.48;98.98;118439.88;5057715;28;20033;-68
2023/05/14 04:53:14;;;;;;;19.38;10.60;;;;;;;-143.48;98.81;118439.88;5057450;28;20028;-66
2023/05/14 04:55:40;;;;;;;18.95;10.70;;;;;;;-143.48;99.12;118439.88;5057514;28;20029;-66
2023/05/14 04:58:05;;;;;;;18.65;10.40;;;;;;;-143.48;98.71;118439.88;5057366;28;20021;-66
2023/05/14 05:00:32;;;;;;;20.95;10.48;;;;;;;-143.48;98.58;118439.88;5057285;28;20040;-66
2023/05/14 05:02:57;;;;;;;18.50;10.43;;;;;;;-143.48;98.31;118439.88;5057357;28;20411;-67
2023/05/14 05:05:23;;;;;;;18.02;10.40;;;;;;;-143.48;97.75;118439.88;5039290;28;20029;-67
2023/05/14 05:07:48;;;;;;;19.88;10.15;;;;;;;-143.48;97.56;118439.88;5057168;28;20060;-67
2023/05/14 05:10:13;;;;;;;17.60;9.95;;;;;;;-143.48;97.42;118439.88;5057268;28;20025;-67
2023/05/14 05:12:39;;;;;;;19.13;10.00;;;;;;;-143.48;97.37;118439.88;5057221;28;20029;-67
2023/05/14 05:15:05;;;;;;;16.45;10.05;;;;;;;-143.48;96.04;118439.88;5057244;28;20403;-67
2023/05/14 05:17:31;;;;;;;15.90;10.00;;;;;;;-143.48;95.40;118439.88;5057225;28;20038;-67
2023/05/14 05:19:56;;;;;;;19.15;9.73;;;;;;;-143.48;95.03;118439.88;5057301;28;20037;-68
2023/05/14 05:22:23;;;;;;;17.17;10.05;;;;;;;-143.48;95.91;118439.88;5039336;28;20113;-67
2023/05/14 05:24:48;;;;;;;15.75;10.43;;;;;;;-143.48;94.46;118439.88;5039399;28;20023;-67
2023/05/14 05:27:13;;;;;;;16.75;9.95;;;;;;;-143.48;95.30;118439.88;5039353;28;20116;-66
2023/05/14 05:29:39;;;;;;;17.63;10.23;;;;;;;-143.48;94.66;118439.88;5057195;28;20025;-67
2023/05/14 05:32:05;;;;;;;17.35;10.40;;;;;;;-143.48;94.56;118439.88;5056904;28;20032;-67
2023/05/14 05:34:30;;;;;;;19.25;10.65;;;;;;;-143.48;95.42;118439.88;5056262;28;20109;-67
2023/05/14 05:36:55;;;;;;;18.27;10.80;;;;;;;-143.48;95.50;118439.88;5056432;28;20108;-67
2023/05/14 05:39:21;;;;;;;19.60;10.55;;;;;;;-143.48;93.89;118439.88;5056460;28;20067;-67
2023/05/14 05:41:46;;;;;;;19.80;10.20;;;;;;;-143.48;93.49;118439.88;5056412;28;20028;-66
2023/05/14 05:44:11;;;;;;;19.45;10.40;;;;;;;-143.48;93.47;118439.88;5056151;28;20425;-67
2023/05/14 05:46:37;;;;;;;19.23;10.18;;;;;;;-143.48;92.21;118439.88;5055731;28;20571;-68
2023/05/14 05:49:02;;;;;;;17.63;10.30;;;;;;;-143.48;93.38;118439.88;5039051;28;20051;-67
2023/05/14 05:51:27;;;;;;;19.60;10.35;;;;;;;-143.48;92.94;118439.88;5039102;28;20025;-67
2023/05/14 05:53:53;;;;;;;15.90;9.82;;;;;;;-143.48;92.54;118439.88;5038536;28;20120;-67
2023/05/14 05:56:18;;;;;;;16.67;9.90;;;;;;;-143.48;92.25;118439.88;5038772;28;20016;-67
2023/05/14 05:58:47;;;;;;;18.73;11.07;;;;;;;-143.48;91.90;118439.88;5056276;28;20036;-67
2023/05/14 06:01:12;;;;;;;17.00;9.68;;;;;;;-143.48;82.80;118439.88;5055973;28;20086;-68
2023/05/14 06:03:38;;;;;;;14.20;8.95;;;;;;;-143.48;86.22;118439.88;5038143;28;20025;-67
2023/05/14 06:06:03;;;;;;;13.40;9.15;;;;;;;-143.48;87.45;118439.88;5055633;28;20021;-67
2023/05/14 06:08:29;;;;;;;14.80;9.57;;;;;;;-143.48;88.82;118439.88;5038032;28;20034;-67
2023/05/14 06:10:54;;;;;;;16.42;9.77;;;;;;;-143.48;89.43;118439.88;5055695;28;20063;-68
2023/05/14 06:13:19;;;;;;;15.20;8.75;;;;;;;-143.48;88.29;118439.88;5055639;28;20017;-67
2023/05/14 06:15:45;;;;;;;19.70;9.75;;;;;;;-143.48;87.18;118439.88;5055498;28;20028;-67
2023/05/14 06:18:10;;;;;;;17.10;9.98;;;;;;;-143.48;86.51;118439.88;5055385;28;20028;-67
2023/05/14 06:20:35;;;;;;;19.25;9.65;;;;;;;-143.48;87.26;118439.88;5055327;28;20330;-67
2023/05/14 06:23:01;;;;;;;15.65;9.30;;;;;;;-143.48;89.39;118439.88;5055324;28;20029;-67
2023/05/14 06:25:26;;;;;;;20.85;10.23;;;;;;;-143.48;88.77;118439.88;5055394;28;20108;-67
2023/05/14 06:27:51;;;;;;;13.95;9.52;;;;;;;-143.48;88.39;118439.88;5055076;28;20037;-68
2023/05/14 06:30:16;;;;;;;15.80;10.02;;;;;;;-143.48;89.96;118439.88;5055030;28;20532;-67
2023/05/14 06:32:42;;;;;;;14.63;9.20;;;;;;;-143.48;89.22;118439.88;5054933;28;20033;-67
2023/05/14 06:35:08;;;;;;;16.23;9.65;;;;;;;-143.48;88.38;118439.88;5055174;28;20021;-67
2023/05/14 06:37:33;;;;;;;14.63;9.52;;;;;;;-143.48;85.76;118439.88;5054979;28;20029;-67
2023/05/14 06:39:59;;;;;;;24.88;9.88;;;;;;;-143.48;86.04;118439.88;5055003;28;20059;-67
2023/05/14 06:42:25;;;;;;;21.52;8.82;;;;;;;-143.48;84.09;118439.88;5037301;28;20032;-68
2023/05/14 06:44:50;;;;;;;15.90;9.15;;;;;;;-143.48;85.87;118439.88;5054833;28;20021;-66
2023/05/14 06:47:16;;;;;;;15.52;8.50;;;;;;;-143.48;82.42;118439.88;5054718;28;20057;-68
2023/05/14 06:49:41;;;;;;;15.45;8.00;;;;;;;-143.48;82.85;118439.88;5054871;28;20028;-67
2023/05/14 06:52:07;;;;;;;14.07;7.65;;;;;;;-143.48;73.61;118439.88;5054845;28;20029;-67
2023/05/14 06:54:32;;;;;;;14.43;7.20;;;;;;;-143.48;65.97;118439.88;5054776;28;20044;-68
2023/05/14 06:56:58;;;;;;;15.50;6.22;;;;;;;-143.48;63.74;118439.88;5054718;28;20468;-67
2023/05/14 06:59:23;;;;;;;16.33;5.82;;;;;;;-143.48;61.37;118439.88;5054675;28;20021;-67
2023/05/14 07:01:48;;;;;;;10.25;5.68;;;;;;;-143.48;59.09;118439.88;5036812;28;20025;-67
2023/05/14 07:04:14;;;;;;;11.75;5.75;;;;;;;-143.48;59.51;118439.88;5054594;28;20431;-68
2023/05/14 07:06:39;;;;;;;10.27;5.60;;;;;;;-143.48;62.93;118439.88;5054614;28;20431;-67
2023/05/14 07:09:05;;;;;;;11.75;5.80;;;;;;;-143.48;64.46;118439.88;5054452;28;20040;-67
2023/05/14 07:11:31;;;;;;;11.82;5.75;;;;;;;-143.48;64.92;118439.88;5035623;28;20037;-68
2023/05/14 07:13:56;;;;;;;16.92;5.78;;;;;;;-143.48;64.40;118439.88;5054406;28;20075;-67
2023/05/14 07:16:21;;;;;;;13.18;5.80;;;;;;;-143.48;67.07;118439.88;5054475;28;20033;-68
2023/05/14 07:18:47;;;;;;;12.25;6.40;;;;;;;-143.48;66.35;118439.88;5054304;28;20056;-66
2023/05/14 07:21:12;;;;;;;10.10;6.40;;;;;;;-143.48;68.25;118439.88;5054258;28;20040;-67
2023/05/14 07:23:37;;;;;;;11.75;6.00;;;;;;;-143.48;69.38;118439.88;5054217;28;20106;-67
2023/05/14 07:26:06;;;;;;;14.35;6.25;;;;;;;-143.48;71.37;118439.88;5036439;28;20119;-67
2023/05/14 07:28:32;;;;;;;13.00;6.10;;;;;;;-143.48;71.92;118439.88;5054132;28;20035;-67
2023/05/14 07:30:58;;;;;;;22.83;6.60;;;;;;;-143.48;70.82;118439.88;5054138;28;20025;-67
2023/05/14 07:33:24;;;;;;;12.43;5.70;;;;;;;-143.48;70.36;118439.88;5036017;28;20040;-67
2023/05/14 07:35:49;;;;;;;13.00;5.30;;;;;;;-143.48;69.03;118439.88;5035888;28;20024;-67
2023/05/14 07:38:15;;;;;;;17.40;4.95;;;;;;;-143.48;68.80;118439.88;5053881;28;20029;-67
2023/05/14 07:40:41;;;;;;;12.23;4.68;;;;;;;-143.48;69.48;118439.88;5036187;28;20036;-66
2023/05/14 07:43:06;;;;;;;17.50;4.35;;;;;;;-143.48;68.31;118439.88;5053898;28;20495;-69
2023/05/14 07:45:31;;;;;;;11.90;4.00;;;;;;;-143.48;67.20;118439.88;5053852;28;20025;-67
2023/05/14 07:47:57;;;;;;;12.18;4.28;;;;;;;-143.48;68.75;118439.88;5053752;28;20049;-67
2023/05/14 07:50:22;;;;;;;11.18;3.95;;;;;;;-143.48;67.41;118439.88;5035896;28;20056;-67
2023/05/14 07:52:48;;;;;;;10.43;3.58;;;;;;;-143.48;66.76;118439.88;5053852;28;20526;-67
2023/05/14 07:55:13;;;;;;;11.18;3.50;;;;;;;-143.48;66.27;118439.88;5035775;28;20025;-67
2023/05/14 07:57:38;;;;;;;14.15;3.92;;;;;;;-143.48;64.22;118439.88;5053436;28;20070;-68
2023/05/14 08:00:06;;;;;;;11.95;3.83;;;;;;;-143.48;65.45;118439.88;5053478;28;20025;-68
2023/05/14 08:02:32;;;;;;;10.30;3.95;;;;;;;-143.48;63.99;118439.88;5053336;28;20021;-68
2023/05/14 08:04:58;;;;;;;14.48;3.70;;;;;;;-143.48;62.38;118439.88;5053415;28;20032;-67
2023/05/14 08:07:23;;;;;;;10.70;4.03;;;;;;;-143.48;63.34;118439.88;5053297;28;20056;-66
2023/05/14 08:09:48;;;;;;;11.73;3.72;;;;;;;-143.48;62.31;118439.88;5053234;28;20105;-67
2023/05/14 08:12:14;;;;;;;12.95;4.20;;;;;;;-143.48;61.07;118439.88;5035235;28;20017;-67
2023/05/14 08:14:40;;;;;;;14.30;4.03;;;;;;;-143.48;60.97;118439.88;5053153;28;20024;-67
2023/05/14 08:17:05;;;;;;;13.40;4.18;;;;;;;-143.48;61.00;118439.88;5035365;28;20155;-67
2023/05/14 08:19:31;;;;;;;10.80;4.13;;;;;;;-143.48;59.94;118439.88;5052924;28;20029;-67
2023/05/14 08:21:57;;;;;;;9.18;3.97;;;;;;;-143.48;62.28;118439.88;5053173;28;20029;-67
2023/05/14 08:24:22;;;;;;;10.07;3.58;;;;;;;-143.48;60.19;118439.88;5052755;28;20468;-67
2023/05/14 08:26:47;;;;;;;12.73;4.00;;;;;;;-143.48;58.70;118439.88;5052924;28;20025;-67
2023/05/14 08:29:13;;;;;;;10.95;3.70;;;;;;;-143.48;57.13;118439.88;5052740;28;20079;-68
2023/05/14 08:31:38;;;;;;;11.00;3.67;;;;;;;-143.48;57.32;118439.88;5052977;28;20025;-67
2023/05/14 08:34:03;;;;;;;11.10;3.72;;;;;;;-143.48;56.95;118439.88;5035095;28;20021;-67
2023/05/14 08:36:28;;;;;;;11.68;3.88;;;;;;;-143.48;58.41;118439.88;5052926;28;20033;-67
2023/05/14 08:38:54;;;;;;;12.20;3.65;;;;;;;-143.48;57.75;118439.88;5052955;28;20020;-67
2023/05/14 08:41:20;;;;;;;10.75;3.47;;;;;;;-143.48;57.38;118439.88;5052668;28;20021;-67
2023/05/14 08:44:04;;;;;;;11.05;3.78;;;;;;;-143.48;57.24;118439.88;5035002;28;20021;-67
2023/05/14 08:46:31;;;;;;;10.82;3.67;;;;;;;-143.48;57.14;118439.88;5052837;28;20036;-67
2023/05/14 08:49:07;;;;;;;10.15;3.60;;;;;;;-143.48;56.67;118439.88;5035273;28;20049;-68
2023/05/14 08:51:33;;;;;;;12.98;3.90;;;;;;;-143.48;55.33;118439.88;5056665;28;20025;-67
2023/05/14 08:54:01;;;;;;;14.98;3.83;;;;;;;-143.48;57.37;118439.88;5058260;28;20044;-67
2023/05/14 08:56:28;;;;;;;10.23;3.55;;;;;;;-143.48;56.79;118439.88;5058982;28;20021;-67
2023/05/14 08:58:53;;;;;;;10.32;3.50;;;;;;;-143.48;53.66;118439.88;5058503;28;20028;-67
2023/05/14 09:01:19;;;;;;;17.63;4.10;;;;;;;-143.48;53.94;118439.88;5058156;28;20029;-67
2023/05/14 09:03:45;;;;;;;11.75;4.05;;;;;;;-143.48;56.89;118439.88;5057082;28;20579;-67
2023/05/14 09:06:11;;;;;;;17.58;4.10;;;;;;;-143.48;55.54;118439.88;5056433;28;20025;-68
2023/05/14 09:08:37;;;;;;;10.45;3.80;;;;;;;-143.48;53.92;118439.88;5039202;28;20025;-68
2023/05/14 09:11:03;;;;;;;13.48;3.72;;;;;;;-143.48;53.79;118439.88;5053369;28;20460;-67
2023/05/14 09:13:28;;;;;;;9.82;3.10;;;;;;;-143.48;52.60;118439.88;5053687;28;20134;-68
2023/05/14 09:15:54;;;;;;;17.13;4.10;;;;;;;-143.48;54.26;118439.88;5035763;28;20141;-67
2023/05/14 09:18:19;;;;;;;13.48;3.60;;;;;;;-143.48;54.14;118439.88;5053490;28;20104;-68
2023/05/14 09:20:45;;;;;;;13.18;3.45;;;;;;;-143.48;52.88;118439.88;5053276;28;20472;-66
2023/05/14 09:23:11;;;;;;;10.65;3.22;;;;;;;-143.48;52.13;118439.88;5053034;28;20021;-67
2023/05/14 09:25:36;;;;;;;19.45;3.75;;;;;;;-143.48;53.81;118439.88;5053214;28;20531;-67
2023/05/14 09:28:05;;;;;;;13.18;3.78;;;;;;;-143.48;52.66;118439.88;5057459;28;20542;-67
2023/05/14 09:30:31;;;;;;;9.40;3.13;;;;;;;-143.48;51.34;118439.88;5057654;28;20032;-67
2023/05/14 09:32:56;;;;;;;15.02;3.88;;;;;;;-143.48;51.63;118439.88;5055900;28;20032;-68
2023/05/14 09:35:23;;;;;;;12.93;3.42;;;;;;;-143.48;53.20;118439.88;5037380;28;20027;-68
2023/05/14 09:37:53;;;;;;;13.35;3.58;;;;;;;-143.48;50.81;118439.88;5057297;28;20021;-67
2023/05/14 09:40:20;;;;;;;11.73;3.47;;;;;;;-143.48;50.78;118439.88;5056261;28;20047;-67
2023/05/14 09:42:47;;;;;;;9.82;3.45;;;;;;;-143.48;52.13;118439.88;5038469;28;20017;-67
2023/05/14 09:45:14;;;;;;;8.23;3.42;;;;;;;-143.48;53.17;118439.88;5037983;28;20124;-67
2023/05/14 09:47:40;;;;;;;12.15;3.85;;;;;;;-143.48;51.23;118439.88;5055735;28;20048;-68
2023/05/14 09:50:07;;;;;;;12.27;3.60;;;;;;;-143.48;51.60;118439.88;5055196;28;20046;-68
2023/05/14 09:52:33;;;;;;;8.25;3.60;;;;;;;-143.48;52.80;118439.88;5055218;28;20033;-67
2023/05/14 09:54:59;;;;;;;15.55;3.97;;;;;;;-143.48;52.82;118439.88;5056300;28;20071;-66
2023/05/14 09:57:26;;;;;;;9.07;3.60;;;;;;;-143.48;53.17;118439.88;5058683;28;20045;-67
2023/05/14 09:59:52;;;;;;;13.23;3.80;;;;;;;-143.48;51.02;118439.88;5055877;28;20527;-67
2023/05/14 10:02:21;;;;;;;9.18;3.50;;;;;;;-143.48;53.12;118439.88;5055544;28;20021;-68
2023/05/14 10:04:48;;;;;;;18.92;4.15;;;;;;;-143.48;51.22;118439.88;5056402;28;20025;-67
2023/05/14 10:07:16;;;;;;;15.82;3.83;;;;;;;-143.48;51.35;118439.88;5058979;28;20419;-67
2023/05/14 10:09:42;;;;;;;18.17;4.07;;;;;;;-143.48;49.75;118439.88;5055469;28;20021;-67
2023/05/14 10:12:08;;;;;;;12.50;3.60;;;;;;;-143.48;50.50;118439.88;5055438;28;20047;-68
2023/05/14 10:14:44;;;;;;;14.48;4.15;;;;;;;-143.48;51.81;118439.88;5037951;28;20029;-68
2023/05/14 10:17:17;;;;;;;14.98;3.80;;;;;;;-143.48;52.05;118439.88;5056685;28;20480;-68
2023/05/14 10:19:46;;;;;;;26.13;3.92;;;;;;;-143.48;51.45;118439.88;5039361;28;20017;-67
2023/05/14 10:22:16;;;;;;;16.20;3.90;;;;;;;-143.48;49.96;118439.88;5055712;28;20029;-66
2023/05/14 10:24:42;;;;;;;10.90;3.53;;;;;;;-143.48;49.26;118439.88;5055444;28;20036;-67
2023/05/14 10:27:08;;;;;;;9.43;3.45;;;;;;;-143.48;49.33;118439.88;5055116;28;20392;-67
2023/05/14 10:29:36;;;;;;;10.32;3.50;;;;;;;-143.48;48.94;118439.88;5054151;28;20024;-67
2023/05/14 10:32:06;;;;;;;15.35;4.13;;;;;;;-143.48;49.43;118439.88;5037099;28;20083;-67
2023/05/14 10:34:42;;;;;;;11.40;3.60;;;;;;;-143.48;49.58;118439.88;5054987;28;20033;-67
2023/05/14 10:37:21;;;;;;;11.48;3.40;;;;;;;-143.48;49.09;118439.88;5037672;28;20046;-67
2023/05/14 10:39:57;;;;;;;11.75;3.58;;;;;;;-143.48;47.89;118439.88;5037646;28;20044;-67
2023/05/14 10:42:38;;;;;;;11.10;3.92;;;;;;;-143.48;48.40;118439.88;5037657;28;20024;-67
2023/05/14 10:45:09;;;;;;;10.75;3.22;;;;;;;-143.48;48.22;118439.88;5037443;28;20029;-67
2023/05/14 10:47:35;;;;;;;8.02;2.83;;;;;;;-143.48;48.10;118439.88;5055443;28;20091;-67
2023/05/14 10:50:03;;;;;;;8.85;3.10;;;;;;;-143.48;48.52;118439.88;5055232;28;20086;-67
2023/05/14 10:52:30;;;;;;;6.78;2.83;;;;;;;-143.48;49.38;118439.88;5037114;28;20028;-68
2023/05/14 10:54:57;;;;;;;8.57;3.20;;;;;;;-143.48;48.02;118439.88;5054480;28;20056;-68